sensor_id;sensor_type;location;lat;lon;timestamp;P1;durP1;ratioP1;P2;durP2;ratioP2
9294;SDS011;4686;44.496;11.324;2022-09-17T00:00:05;19.77;;;4.40;;
9294;SDS011;4686;44.496;11.324;2022-09-17T00:02:33;21.00;;;3.97;;
9294;SDS011;4686;44.496;11.324;2022-09-17T00:05:01;13.17;;;4.13;;
9294;SDS011;4686;44.496;11.324;2022-09-17T00:07:29;12.10;;;4.40;;
9294;SDS011;4686;44.496;11.324;2022-09-17T00:09:56;16.03;;;4.50;;
9294;SDS011;4686;44.496;11.324;2022-09-17T00:12:23;9.50;;;3.83;;
9294;SDS011;4686;44.496;11.324;2022-09-17T00:14:53;21.70;;;5.40;;
9294;SDS011;4686;44.496;11.324;2022-09-17T00:17:22;18.27;;;4.30;;
9294;SDS011;4686;44.496;11.324;2022-09-17T00:19:50;12.47;;;3.87;;
9294;SDS011;4686;44.496;11.324;2022-09-17T00:22:18;12.53;;;4.30;;
9294;SDS011;4686;44.496;11.324;2022-09-17T00:24:46;16.17;;;4.90;;
9294;SDS011;4686;44.496;11.324;2022-09-17T00:27:15;14.27;;;4.97;;
9294;SDS011;4686;44.496;11.324;2022-09-17T00:29:42;17.30;;;5.00;;
9294;SDS011;4686;44.496;11.324;2022-09-17T00:32:10;15.40;;;4.30;;
9294;SDS011;4686;44.496;11.324;2022-09-17T00:34:38;17.30;;;4.90;;
9294;SDS011;4686;44.496;11.324;2022-09-17T00:37:06;14.33;;;4.67;;
9294;SDS011;4686;44.496;11.324;2022-09-17T00:39:33;24.43;;;5.10;;
9294;SDS011;4686;44.496;11.324;2022-09-17T00:42:00;20.60;;;5.50;;
9294;SDS011;4686;44.496;11.324;2022-09-17T00:47:22;22.13;;;4.83;;
9294;SDS011;4686;44.496;11.324;2022-09-17T00:49:53;16.40;;;4.97;;
9294;SDS011;4686;44.496;11.324;2022-09-17T00:52:23;20.00;;;5.30;;
9294;SDS011;4686;44.496;11.324;2022-09-17T00:54:53;15.77;;;3.87;;
9294;SDS011;4686;44.496;11.324;2022-09-17T00:57:22;14.50;;;4.30;;
9294;SDS011;4686;44.496;11.324;2022-09-17T00:59:49;12.50;;;4.23;;
9294;SDS011;4686;44.496;11.324;2022-09-17T01:02:17;15.07;;;4.27;;
9294;SDS011;4686;44.496;11.324;2022-09-17T01:04:45;14.43;;;4.40;;
9294;SDS011;4686;44.496;11.324;2022-09-17T01:07:17;13.53;;;4.10;;
9294;SDS011;4686;44.496;11.324;2022-09-17T01:09:47;11.40;;;3.93;;
9294;SDS011;4686;44.496;11.324;2022-09-17T01:12:27;13.17;;;4.90;;
9294;SDS011;4686;44.496;11.324;2022-09-17T01:14:59;14.03;;;4.80;;
9294;SDS011;4686;44.496;11.324;2022-09-17T01:17:30;12.67;;;4.27;;
9294;SDS011;4686;44.496;11.324;2022-09-17T01:20:06;11.03;;;4.17;;
9294;SDS011;4686;44.496;11.324;2022-09-17T01:22:38;9.30;;;3.40;;
9294;SDS011;4686;44.496;11.324;2022-09-17T01:25:19;15.67;;;4.70;;
9294;SDS011;4686;44.496;11.324;2022-09-17T01:33:25;17.83;;;4.50;;
9294;SDS011;4686;44.496;11.324;2022-09-17T01:35:56;13.23;;;3.70;;
9294;SDS011;4686;44.496;11.324;2022-09-17T01:38:26;16.13;;;4.10;;
9294;SDS011;4686;44.496;11.324;2022-09-17T01:40:57;10.93;;;4.00;;
9294;SDS011;4686;44.496;11.324;2022-09-17T01:43:32;18.83;;;4.07;;
9294;SDS011;4686;44.496;11.324;2022-09-17T01:46:02;11.07;;;3.30;;
9294;SDS011;4686;44.496;11.324;2022-09-17T01:48:32;9.73;;;3.43;;
9294;SDS011;4686;44.496;11.324;2022-09-17T01:51:03;14.23;;;3.27;;
9294;SDS011;4686;44.496;11.324;2022-09-17T01:53:34;13.90;;;3.67;;
9294;SDS011;4686;44.496;11.324;2022-09-17T01:56:06;16.13;;;3.30;;
9294;SDS011;4686;44.496;11.324;2022-09-17T01:58:34;10.73;;;3.53;;
9294;SDS011;4686;44.496;11.324;2022-09-17T02:01:04;18.37;;;3.67;;
9294;SDS011;4686;44.496;11.324;2022-09-17T02:03:35;18.67;;;3.93;;
9294;SDS011;4686;44.496;11.324;2022-09-17T02:06:05;12.33;;;3.73;;
9294;SDS011;4686;44.496;11.324;2022-09-17T02:08:35;16.10;;;3.47;;
9294;SDS011;4686;44.496;11.324;2022-09-17T02:11:04;20.90;;;3.73;;
9294;SDS011;4686;44.496;11.324;2022-09-17T02:13:35;14.23;;;3.73;;
9294;SDS011;4686;44.496;11.324;2022-09-17T02:16:04;10.87;;;3.37;;
9294;SDS011;4686;44.496;11.324;2022-09-17T02:18:36;18.17;;;3.67;;
9294;SDS011;4686;44.496;11.324;2022-09-17T02:21:06;10.90;;;3.40;;
9294;SDS011;4686;44.496;11.324;2022-09-17T02:23:35;10.80;;;3.27;;
9294;SDS011;4686;44.496;11.324;2022-09-17T02:26:07;15.23;;;3.63;;
9294;SDS011;4686;44.496;11.324;2022-09-17T02:28:38;16.47;;;3.67;;
9294;SDS011;4686;44.496;11.324;2022-09-17T02:31:07;9.57;;;3.33;;
9294;SDS011;4686;44.496;11.324;2022-09-17T02:33:36;13.17;;;3.33;;
9294;SDS011;4686;44.496;11.324;2022-09-17T02:36:04;12.20;;;3.60;;
9294;SDS011;4686;44.496;11.324;2022-09-17T02:38:31;7.20;;;2.40;;
9294;SDS011;4686;44.496;11.324;2022-09-17T02:41:03;7.13;;;2.60;;
9294;SDS011;4686;44.496;11.324;2022-09-17T02:43:33;8.43;;;3.00;;
9294;SDS011;4686;44.496;11.324;2022-09-17T02:46:08;4.70;;;2.47;;
9294;SDS011;4686;44.496;11.324;2022-09-17T02:51:32;10.70;;;2.97;;
9294;SDS011;4686;44.496;11.324;2022-09-17T02:54:04;13.13;;;3.27;;
9294;SDS011;4686;44.496;11.324;2022-09-17T02:56:36;7.27;;;2.43;;
9294;SDS011;4686;44.496;11.324;2022-09-17T02:59:11;3.80;;;2.70;;
9294;SDS011;4686;44.496;11.324;2022-09-17T03:01:43;5.13;;;2.30;;
9294;SDS011;4686;44.496;11.324;2022-09-17T03:04:13;5.30;;;2.57;;
9294;SDS011;4686;44.496;11.324;2022-09-17T03:06:42;4.60;;;2.60;;
9294;SDS011;4686;44.496;11.324;2022-09-17T03:09:11;4.83;;;3.27;;
9294;SDS011;4686;44.496;11.324;2022-09-17T03:11:38;7.00;;;2.87;;
9294;SDS011;4686;44.496;11.324;2022-09-17T03:14:06;4.37;;;2.30;;
9294;SDS011;4686;44.496;11.324;2022-09-17T03:16:33;5.70;;;2.17;;
9294;SDS011;4686;44.496;11.324;2022-09-17T03:19:01;7.63;;;2.47;;
9294;SDS011;4686;44.496;11.324;2022-09-17T03:21:28;4.27;;;2.00;;
9294;SDS011;4686;44.496;11.324;2022-09-17T03:23:57;5.33;;;2.80;;
9294;SDS011;4686;44.496;11.324;2022-09-17T03:26:25;6.13;;;2.13;;
9294;SDS011;4686;44.496;11.324;2022-09-17T03:28:53;9.33;;;2.57;;
9294;SDS011;4686;44.496;11.324;2022-09-17T03:31:20;5.63;;;2.20;;
9294;SDS011;4686;44.496;11.324;2022-09-17T03:33:47;5.00;;;2.20;;
9294;SDS011;4686;44.496;11.324;2022-09-17T03:36:15;4.37;;;2.30;;
9294;SDS011;4686;44.496;11.324;2022-09-17T03:38:42;4.80;;;2.33;;
9294;SDS011;4686;44.496;11.324;2022-09-17T03:41:11;5.97;;;2.30;;
9294;SDS011;4686;44.496;11.324;2022-09-17T03:43:39;5.27;;;2.10;;
9294;SDS011;4686;44.496;11.324;2022-09-17T03:46:06;4.53;;;2.50;;
9294;SDS011;4686;44.496;11.324;2022-09-17T03:48:34;4.40;;;2.20;;
9294;SDS011;4686;44.496;11.324;2022-09-17T03:51:04;2.40;;;2.10;;
9294;SDS011;4686;44.496;11.324;2022-09-17T03:53:31;11.27;;;3.00;;
9294;SDS011;4686;44.496;11.324;2022-09-17T03:55:59;5.33;;;2.40;;
9294;SDS011;4686;44.496;11.324;2022-09-17T03:58:30;4.23;;;2.10;;
9294;SDS011;4686;44.496;11.324;2022-09-17T04:00:58;2.90;;;2.33;;
9294;SDS011;4686;44.496;11.324;2022-09-17T04:03:25;6.43;;;2.23;;
9294;SDS011;4686;44.496;11.324;2022-09-17T04:05:53;7.43;;;2.03;;
9294;SDS011;4686;44.496;11.324;2022-09-17T04:08:21;7.23;;;2.30;;
9294;SDS011;4686;44.496;11.324;2022-09-17T04:10:48;5.30;;;2.50;;
9294;SDS011;4686;44.496;11.324;2022-09-17T04:13:17;3.80;;;2.03;;
9294;SDS011;4686;44.496;11.324;2022-09-17T04:15:46;9.33;;;2.63;;
9294;SDS011;4686;44.496;11.324;2022-09-17T04:18:14;15.10;;;3.10;;
9294;SDS011;4686;44.496;11.324;2022-09-17T04:20:42;6.77;;;2.57;;
9294;SDS011;4686;44.496;11.324;2022-09-17T04:23:09;12.00;;;2.67;;
9294;SDS011;4686;44.496;11.324;2022-09-17T04:25:37;7.87;;;2.87;;
9294;SDS011;4686;44.496;11.324;2022-09-17T04:28:05;9.23;;;2.53;;
9294;SDS011;4686;44.496;11.324;2022-09-17T04:30:32;15.60;;;3.10;;
9294;SDS011;4686;44.496;11.324;2022-09-17T04:33:03;12.83;;;3.33;;
9294;SDS011;4686;44.496;11.324;2022-09-17T04:35:30;15.47;;;3.27;;
9294;SDS011;4686;44.496;11.324;2022-09-17T04:37:58;9.33;;;2.87;;
9294;SDS011;4686;44.496;11.324;2022-09-17T04:40:25;9.10;;;3.30;;
9294;SDS011;4686;44.496;11.324;2022-09-17T04:42:53;8.90;;;3.47;;
9294;SDS011;4686;44.496;11.324;2022-09-17T04:45:20;8.00;;;2.80;;
9294;SDS011;4686;44.496;11.324;2022-09-17T04:47:48;12.73;;;3.33;;
9294;SDS011;4686;44.496;11.324;2022-09-17T04:50:17;11.13;;;3.37;;
9294;SDS011;4686;44.496;11.324;2022-09-17T04:52:44;10.97;;;3.10;;
9294;SDS011;4686;44.496;11.324;2022-09-17T04:55:12;6.70;;;2.60;;
9294;SDS011;4686;44.496;11.324;2022-09-17T04:57:44;11.17;;;2.90;;
9294;SDS011;4686;44.496;11.324;2022-09-17T05:00:12;9.60;;;3.50;;
9294;SDS011;4686;44.496;11.324;2022-09-17T05:02:41;7.20;;;2.90;;
9294;SDS011;4686;44.496;11.324;2022-09-17T05:05:09;14.03;;;4.03;;
9294;SDS011;4686;44.496;11.324;2022-09-17T05:07:39;13.63;;;4.00;;
9294;SDS011;4686;44.496;11.324;2022-09-17T05:10:06;9.23;;;2.90;;
9294;SDS011;4686;44.496;11.324;2022-09-17T05:12:34;15.93;;;4.00;;
9294;SDS011;4686;44.496;11.324;2022-09-17T05:15:02;14.30;;;3.73;;
9294;SDS011;4686;44.496;11.324;2022-09-17T05:17:29;10.63;;;3.43;;
9294;SDS011;4686;44.496;11.324;2022-09-17T05:19:57;19.17;;;4.10;;
9294;SDS011;4686;44.496;11.324;2022-09-17T05:22:24;12.43;;;4.00;;
9294;SDS011;4686;44.496;11.324;2022-09-17T05:24:52;10.47;;;4.20;;
9294;SDS011;4686;44.496;11.324;2022-09-17T05:27:20;18.00;;;4.97;;
9294;SDS011;4686;44.496;11.324;2022-09-17T05:29:47;19.70;;;4.80;;
9294;SDS011;4686;44.496;11.324;2022-09-17T05:32:14;18.90;;;5.07;;
9294;SDS011;4686;44.496;11.324;2022-09-17T05:34:42;19.83;;;5.10;;
9294;SDS011;4686;44.496;11.324;2022-09-17T05:37:09;15.20;;;4.30;;
9294;SDS011;4686;44.496;11.324;2022-09-17T05:39:37;15.20;;;4.00;;
9294;SDS011;4686;44.496;11.324;2022-09-17T05:42:06;19.63;;;4.13;;
9294;SDS011;4686;44.496;11.324;2022-09-17T05:44:33;8.40;;;3.70;;
9294;SDS011;4686;44.496;11.324;2022-09-17T05:47:01;15.13;;;4.50;;
9294;SDS011;4686;44.496;11.324;2022-09-17T05:49:28;14.67;;;3.60;;
9294;SDS011;4686;44.496;11.324;2022-09-17T05:51:55;14.33;;;3.90;;
9294;SDS011;4686;44.496;11.324;2022-09-17T05:54:23;10.77;;;3.53;;
9294;SDS011;4686;44.496;11.324;2022-09-17T05:56:51;7.73;;;3.13;;
9294;SDS011;4686;44.496;11.324;2022-09-17T05:59:20;5.33;;;2.23;;
9294;SDS011;4686;44.496;11.324;2022-09-17T06:01:48;6.53;;;2.47;;
9294;SDS011;4686;44.496;11.324;2022-09-17T06:04:15;6.33;;;2.70;;
9294;SDS011;4686;44.496;11.324;2022-09-17T06:06:43;3.70;;;2.30;;
9294;SDS011;4686;44.496;11.324;2022-09-17T06:09:10;5.93;;;2.53;;
9294;SDS011;4686;44.496;11.324;2022-09-17T06:11:38;5.00;;;3.00;;
9294;SDS011;4686;44.496;11.324;2022-09-17T06:14:05;8.67;;;3.20;;
9294;SDS011;4686;44.496;11.324;2022-09-17T06:16:34;8.47;;;2.83;;
9294;SDS011;4686;44.496;11.324;2022-09-17T06:19:01;3.73;;;2.20;;
9294;SDS011;4686;44.496;11.324;2022-09-17T06:21:29;1.97;;;1.80;;
9294;SDS011;4686;44.496;11.324;2022-09-17T06:23:57;2.57;;;2.20;;
9294;SDS011;4686;44.496;11.324;2022-09-17T06:26:24;2.47;;;2.27;;
9294;SDS011;4686;44.496;11.324;2022-09-17T06:28:51;3.80;;;2.07;;
9294;SDS011;4686;44.496;11.324;2022-09-17T06:31:19;3.23;;;2.57;;
9294;SDS011;4686;44.496;11.324;2022-09-17T06:33:48;2.03;;;1.80;;
9294;SDS011;4686;44.496;11.324;2022-09-17T06:36:16;3.87;;;2.10;;
9294;SDS011;4686;44.496;11.324;2022-09-17T06:38:43;3.20;;;2.27;;
9294;SDS011;4686;44.496;11.324;2022-09-17T06:41:11;2.20;;;2.10;;
9294;SDS011;4686;44.496;11.324;2022-09-17T06:43:40;2.27;;;2.07;;
9294;SDS011;4686;44.496;11.324;2022-09-17T06:46:08;2.20;;;2.00;;
9294;SDS011;4686;44.496;11.324;2022-09-17T06:48:36;4.13;;;2.37;;
9294;SDS011;4686;44.496;11.324;2022-09-17T06:51:05;3.33;;;2.23;;
9294;SDS011;4686;44.496;11.324;2022-09-17T06:53:34;3.67;;;2.20;;
9294;SDS011;4686;44.496;11.324;2022-09-17T06:56:02;3.53;;;2.33;;
9294;SDS011;4686;44.496;11.324;2022-09-17T06:58:30;3.30;;;2.40;;
9294;SDS011;4686;44.496;11.324;2022-09-17T07:00:57;5.17;;;2.80;;
9294;SDS011;4686;44.496;11.324;2022-09-17T07:03:25;4.67;;;2.53;;
9294;SDS011;4686;44.496;11.324;2022-09-17T07:05:53;5.07;;;2.57;;
9294;SDS011;4686;44.496;11.324;2022-09-17T07:08:22;2.77;;;2.53;;
9294;SDS011;4686;44.496;11.324;2022-09-17T07:10:50;5.10;;;2.70;;
9294;SDS011;4686;44.496;11.324;2022-09-17T07:13:18;2.77;;;2.50;;
9294;SDS011;4686;44.496;11.324;2022-09-17T07:15:51;3.00;;;2.20;;
9294;SDS011;4686;44.496;11.324;2022-09-17T07:18:20;5.90;;;2.20;;
9294;SDS011;4686;44.496;11.324;2022-09-17T07:20:51;6.03;;;2.10;;
9294;SDS011;4686;44.496;11.324;2022-09-17T07:23:22;4.60;;;2.30;;
9294;SDS011;4686;44.496;11.324;2022-09-17T07:25:54;3.53;;;2.53;;
9294;SDS011;4686;44.496;11.324;2022-09-17T07:28:22;2.50;;;2.30;;
9294;SDS011;4686;44.496;11.324;2022-09-17T07:30:52;2.70;;;2.50;;
9294;SDS011;4686;44.496;11.324;2022-09-17T07:33:21;4.33;;;2.63;;
9294;SDS011;4686;44.496;11.324;2022-09-17T07:35:53;4.33;;;2.87;;
9294;SDS011;4686;44.496;11.324;2022-09-17T07:38:24;3.07;;;2.73;;
9294;SDS011;4686;44.496;11.324;2022-09-17T07:41:00;5.13;;;2.83;;
9294;SDS011;4686;44.496;11.324;2022-09-17T07:43:40;3.40;;;2.77;;
9294;SDS011;4686;44.496;11.324;2022-09-17T07:46:09;3.40;;;3.00;;
9294;SDS011;4686;44.496;11.324;2022-09-17T07:48:39;5.53;;;2.80;;
9294;SDS011;4686;44.496;11.324;2022-09-17T07:51:06;5.70;;;3.17;;
9294;SDS011;4686;44.496;11.324;2022-09-17T07:53:36;5.47;;;3.40;;
9294;SDS011;4686;44.496;11.324;2022-09-17T07:56:08;6.80;;;3.33;;
9294;SDS011;4686;44.496;11.324;2022-09-17T07:58:36;5.30;;;3.40;;
9294;SDS011;4686;44.496;11.324;2022-09-17T08:01:04;7.07;;;3.53;;
9294;SDS011;4686;44.496;11.324;2022-09-17T08:03:32;6.37;;;3.60;;
9294;SDS011;4686;44.496;11.324;2022-09-17T08:06:06;5.80;;;3.40;;
9294;SDS011;4686;44.496;11.324;2022-09-17T08:08:35;3.33;;;2.93;;
9294;SDS011;4686;44.496;11.324;2022-09-17T08:11:04;5.30;;;3.73;;
9294;SDS011;4686;44.496;11.324;2022-09-17T08:13:32;4.93;;;3.20;;
9294;SDS011;4686;44.496;11.324;2022-09-17T08:15:59;3.93;;;3.30;;
9294;SDS011;4686;44.496;11.324;2022-09-17T08:18:27;2.97;;;2.70;;
9294;SDS011;4686;44.496;11.324;2022-09-17T08:20:55;4.50;;;3.20;;
9294;SDS011;4686;44.496;11.324;2022-09-17T08:23:23;4.13;;;3.63;;
9294;SDS011;4686;44.496;11.324;2022-09-17T08:25:53;4.10;;;3.33;;
9294;SDS011;4686;44.496;11.324;2022-09-17T08:28:20;3.83;;;3.40;;
9294;SDS011;4686;44.496;11.324;2022-09-17T08:30:49;3.17;;;2.97;;
9294;SDS011;4686;44.496;11.324;2022-09-17T08:33:17;3.43;;;2.73;;
9294;SDS011;4686;44.496;11.324;2022-09-17T08:35:49;2.70;;;2.50;;
9294;SDS011;4686;44.496;11.324;2022-09-17T08:38:19;3.40;;;3.10;;
9294;SDS011;4686;44.496;11.324;2022-09-17T08:40:51;2.70;;;2.60;;
9294;SDS011;4686;44.496;11.324;2022-09-17T08:43:26;3.67;;;3.37;;
9294;SDS011;4686;44.496;11.324;2022-09-17T08:45:55;4.77;;;2.90;;
9294;SDS011;4686;44.496;11.324;2022-09-17T08:48:23;2.60;;;2.50;;
9294;SDS011;4686;44.496;11.324;2022-09-17T08:50:51;4.50;;;4.07;;
9294;SDS011;4686;44.496;11.324;2022-09-17T08:53:23;4.07;;;2.90;;
9294;SDS011;4686;44.496;11.324;2022-09-17T08:55:56;2.90;;;2.70;;
9294;SDS011;4686;44.496;11.324;2022-09-17T08:58:29;3.30;;;3.10;;
9294;SDS011;4686;44.496;11.324;2022-09-17T09:01:02;3.27;;;3.07;;
9294;SDS011;4686;44.496;11.324;2022-09-17T09:03:32;3.57;;;3.00;;
9294;SDS011;4686;44.496;11.324;2022-09-17T09:06:01;3.60;;;3.27;;
9294;SDS011;4686;44.496;11.324;2022-09-17T09:08:29;2.60;;;2.40;;
9294;SDS011;4686;44.496;11.324;2022-09-17T09:10:58;4.20;;;3.00;;
9294;SDS011;4686;44.496;11.324;2022-09-17T09:13:30;3.47;;;3.03;;
9294;SDS011;4686;44.496;11.324;2022-09-17T09:16:01;3.20;;;2.83;;
9294;SDS011;4686;44.496;11.324;2022-09-17T09:18:30;2.93;;;2.60;;
9294;SDS011;4686;44.496;11.324;2022-09-17T09:21:04;5.90;;;2.80;;
9294;SDS011;4686;44.496;11.324;2022-09-17T09:23:39;3.43;;;2.83;;
9294;SDS011;4686;44.496;11.324;2022-09-17T09:26:11;11.27;;;5.90;;
9294;SDS011;4686;44.496;11.324;2022-09-17T09:28:44;4.03;;;3.17;;
9294;SDS011;4686;44.496;11.324;2022-09-17T09:33:58;3.00;;;2.80;;
9294;SDS011;4686;44.496;11.324;2022-09-17T09:36:27;7.17;;;3.60;;
9294;SDS011;4686;44.496;11.324;2022-09-17T09:38:56;3.43;;;3.10;;
9294;SDS011;4686;44.496;11.324;2022-09-17T09:41:26;3.33;;;3.03;;
9294;SDS011;4686;44.496;11.324;2022-09-17T09:43:59;5.70;;;4.47;;
9294;SDS011;4686;44.496;11.324;2022-09-17T09:46:39;5.27;;;4.77;;
9294;SDS011;4686;44.496;11.324;2022-09-17T09:49:14;3.40;;;3.20;;
9294;SDS011;4686;44.496;11.324;2022-09-17T09:51:48;4.20;;;3.80;;
9294;SDS011;4686;44.496;11.324;2022-09-17T09:54:24;3.83;;;3.53;;
9294;SDS011;4686;44.496;11.324;2022-09-17T09:56:54;3.57;;;3.27;;
9294;SDS011;4686;44.496;11.324;2022-09-17T09:59:24;3.13;;;2.90;;
9294;SDS011;4686;44.496;11.324;2022-09-17T10:01:52;3.50;;;3.20;;
9294;SDS011;4686;44.496;11.324;2022-09-17T10:04:20;4.50;;;4.10;;
9294;SDS011;4686;44.496;11.324;2022-09-17T10:06:48;4.20;;;3.80;;
9294;SDS011;4686;44.496;11.324;2022-09-17T10:09:16;3.83;;;3.00;;
9294;SDS011;4686;44.496;11.324;2022-09-17T10:14:30;2.93;;;2.73;;
9294;SDS011;4686;44.496;11.324;2022-09-17T10:17:14;3.10;;;2.90;;
9294;SDS011;4686;44.496;11.324;2022-09-17T10:19:45;3.10;;;2.87;;
9294;SDS011;4686;44.496;11.324;2022-09-17T10:22:23;8.20;;;3.90;;
9294;SDS011;4686;44.496;11.324;2022-09-17T10:24:51;4.03;;;3.10;;
9294;SDS011;4686;44.496;11.324;2022-09-17T10:27:20;3.33;;;3.03;;
9294;SDS011;4686;44.496;11.324;2022-09-17T10:29:51;3.00;;;2.80;;
9294;SDS011;4686;44.496;11.324;2022-09-17T10:32:19;4.10;;;3.27;;
9294;SDS011;4686;44.496;11.324;2022-09-17T10:34:56;4.07;;;3.00;;
9294;SDS011;4686;44.496;11.324;2022-09-17T10:37:33;3.57;;;3.27;;
9294;SDS011;4686;44.496;11.324;2022-09-17T10:40:14;40.20;;;14.57;;
9294;SDS011;4686;44.496;11.324;2022-09-17T10:45:38;3.70;;;3.40;;
9294;SDS011;4686;44.496;11.324;2022-09-17T10:48:11;2.93;;;2.60;;
9294;SDS011;4686;44.496;11.324;2022-09-17T10:50:41;2.80;;;2.60;;
9294;SDS011;4686;44.496;11.324;2022-09-17T10:53:15;3.20;;;2.90;;
9294;SDS011;4686;44.496;11.324;2022-09-17T10:55:44;2.77;;;2.57;;
9294;SDS011;4686;44.496;11.324;2022-09-17T10:58:19;10.17;;;2.80;;
9294;SDS011;4686;44.496;11.324;2022-09-17T11:00:58;3.53;;;3.07;;
9294;SDS011;4686;44.496;11.324;2022-09-17T11:03:38;2.50;;;2.30;;
9294;SDS011;4686;44.496;11.324;2022-09-17T11:06:13;2.87;;;2.60;;
9294;SDS011;4686;44.496;11.324;2022-09-17T11:08:45;4.70;;;2.43;;
9294;SDS011;4686;44.496;11.324;2022-09-17T11:11:17;2.60;;;2.40;;
9294;SDS011;4686;44.496;11.324;2022-09-17T11:13:45;2.40;;;2.20;;
9294;SDS011;4686;44.496;11.324;2022-09-17T11:16:21;2.17;;;2.03;;
9294;SDS011;4686;44.496;11.324;2022-09-17T11:18:54;2.77;;;2.57;;
9294;SDS011;4686;44.496;11.324;2022-09-17T11:21:45;2.70;;;2.50;;
9294;SDS011;4686;44.496;11.324;2022-09-17T11:24:27;2.33;;;2.13;;
9294;SDS011;4686;44.496;11.324;2022-09-17T11:27:02;2.50;;;2.30;;
9294;SDS011;4686;44.496;11.324;2022-09-17T11:29:43;2.40;;;2.20;;
9294;SDS011;4686;44.496;11.324;2022-09-17T11:32:22;2.30;;;2.10;;
9294;SDS011;4686;44.496;11.324;2022-09-17T11:34:53;3.93;;;2.30;;
9294;SDS011;4686;44.496;11.324;2022-09-17T11:37:25;2.80;;;2.60;;
9294;SDS011;4686;44.496;11.324;2022-09-17T11:39:55;4.80;;;1.75;;
9294;SDS011;4686;44.496;11.324;2022-09-17T11:42:24;3.57;;;2.50;;
9294;SDS011;4686;44.496;11.324;2022-09-17T11:44:55;3.07;;;2.87;;
9294;SDS011;4686;44.496;11.324;2022-09-17T11:47:30;2.47;;;2.27;;
9294;SDS011;4686;44.496;11.324;2022-09-17T11:50:02;3.40;;;2.33;;
9294;SDS011;4686;44.496;11.324;2022-09-17T11:52:31;2.90;;;2.20;;
9294;SDS011;4686;44.496;11.324;2022-09-17T11:55:02;2.47;;;2.27;;
9294;SDS011;4686;44.496;11.324;2022-09-17T11:57:32;5.10;;;2.40;;
9294;SDS011;4686;44.496;11.324;2022-09-17T12:00:03;3.80;;;2.40;;
9294;SDS011;4686;44.496;11.324;2022-09-17T12:02:37;3.40;;;2.20;;
9294;SDS011;4686;44.496;11.324;2022-09-17T12:05:09;2.23;;;2.03;;
9294;SDS011;4686;44.496;11.324;2022-09-17T12:07:42;5.90;;;3.00;;
9294;SDS011;4686;44.496;11.324;2022-09-17T12:10:18;2.30;;;2.03;;
9294;SDS011;4686;44.496;11.324;2022-09-17T12:12:47;2.17;;;2.07;;
9294;SDS011;4686;44.496;11.324;2022-09-17T12:15:17;3.13;;;2.20;;
9294;SDS011;4686;44.496;11.324;2022-09-17T12:17:48;2.20;;;1.93;;
9294;SDS011;4686;44.496;11.324;2022-09-17T12:20:18;2.17;;;1.97;;
9294;SDS011;4686;44.496;11.324;2022-09-17T12:22:49;2.67;;;2.50;;
9294;SDS011;4686;44.496;11.324;2022-09-17T12:25:28;2.00;;;1.90;;
9294;SDS011;4686;44.496;11.324;2022-09-17T12:27:58;2.10;;;1.90;;
9294;SDS011;4686;44.496;11.324;2022-09-17T12:30:28;3.37;;;3.13;;
9294;SDS011;4686;44.496;11.324;2022-09-17T12:33:00;2.73;;;2.53;;
9294;SDS011;4686;44.496;11.324;2022-09-17T12:35:32;3.27;;;2.10;;
9294;SDS011;4686;44.496;11.324;2022-09-17T12:38:09;2.30;;;1.90;;
9294;SDS011;4686;44.496;11.324;2022-09-17T12:40:40;4.67;;;2.40;;
9294;SDS011;4686;44.496;11.324;2022-09-17T12:43:26;2.60;;;2.40;;
9294;SDS011;4686;44.496;11.324;2022-09-17T12:46:05;4.47;;;2.20;;
9294;SDS011;4686;44.496;11.324;2022-09-17T12:51:16;3.67;;;2.20;;
9294;SDS011;4686;44.496;11.324;2022-09-17T12:53:50;2.83;;;2.60;;
9294;SDS011;4686;44.496;11.324;2022-09-17T12:56:26;2.60;;;2.37;;
9294;SDS011;4686;44.496;11.324;2022-09-17T12:59:01;5.27;;;2.63;;
9294;SDS011;4686;44.496;11.324;2022-09-17T13:01:31;5.57;;;2.33;;
9294;SDS011;4686;44.496;11.324;2022-09-17T13:04:09;4.43;;;2.60;;
9294;SDS011;4686;44.496;11.324;2022-09-17T13:06:47;3.83;;;2.57;;
9294;SDS011;4686;44.496;11.324;2022-09-17T13:12:20;2.80;;;2.23;;
9294;SDS011;4686;44.496;11.324;2022-09-17T13:14:55;5.90;;;2.43;;
9294;SDS011;4686;44.496;11.324;2022-09-17T13:17:26;3.97;;;2.30;;
9294;SDS011;4686;44.496;11.324;2022-09-17T13:19:56;2.47;;;2.10;;
9294;SDS011;4686;44.496;11.324;2022-09-17T13:22:28;7.40;;;2.33;;
9294;SDS011;4686;44.496;11.324;2022-09-17T13:25:02;4.83;;;2.77;;
9294;SDS011;4686;44.496;11.324;2022-09-17T13:27:30;2.60;;;1.90;;
9294;SDS011;4686;44.496;11.324;2022-09-17T13:30:00;2.87;;;1.97;;
9294;SDS011;4686;44.496;11.324;2022-09-17T13:38:12;3.00;;;2.17;;
9294;SDS011;4686;44.496;11.324;2022-09-17T13:40:40;6.13;;;2.33;;
9294;SDS011;4686;44.496;11.324;2022-09-17T13:43:08;3.07;;;1.83;;
9294;SDS011;4686;44.496;11.324;2022-09-17T13:48:25;3.40;;;2.07;;
9294;SDS011;4686;44.496;11.324;2022-09-17T13:50:54;4.00;;;2.33;;
9294;SDS011;4686;44.496;11.324;2022-09-17T13:53:25;2.83;;;2.20;;
9294;SDS011;4686;44.496;11.324;2022-09-17T13:55:53;3.50;;;2.30;;
9294;SDS011;4686;44.496;11.324;2022-09-17T13:58:23;5.47;;;2.10;;
9294;SDS011;4686;44.496;11.324;2022-09-17T14:00:52;3.20;;;1.90;;
9294;SDS011;4686;44.496;11.324;2022-09-17T14:08:48;2.83;;;2.20;;
9294;SDS011;4686;44.496;11.324;2022-09-17T14:11:36;4.57;;;1.83;;
9294;SDS011;4686;44.496;11.324;2022-09-17T14:16:49;6.10;;;2.20;;
9294;SDS011;4686;44.496;11.324;2022-09-17T14:19:19;3.53;;;2.07;;
9294;SDS011;4686;44.496;11.324;2022-09-17T14:21:59;4.60;;;2.40;;
9294;SDS011;4686;44.496;11.324;2022-09-17T14:30:17;9.23;;;2.10;;
9294;SDS011;4686;44.496;11.324;2022-09-17T14:32:47;4.30;;;1.80;;
9294;SDS011;4686;44.496;11.324;2022-09-17T14:35:17;2.77;;;2.00;;
9294;SDS011;4686;44.496;11.324;2022-09-17T14:37:46;6.70;;;2.40;;
9294;SDS011;4686;44.496;11.324;2022-09-17T14:40:15;2.90;;;2.20;;
9294;SDS011;4686;44.496;11.324;2022-09-17T14:42:44;7.93;;;2.07;;
9294;SDS011;4686;44.496;11.324;2022-09-17T14:45:14;2.53;;;1.90;;
9294;SDS011;4686;44.496;11.324;2022-09-17T14:50:42;4.73;;;2.10;;
9294;SDS011;4686;44.496;11.324;2022-09-17T14:53:15;2.67;;;1.90;;
9294;SDS011;4686;44.496;11.324;2022-09-17T14:55:43;2.10;;;1.93;;
9294;SDS011;4686;44.496;11.324;2022-09-17T14:58:25;5.80;;;2.10;;
9294;SDS011;4686;44.496;11.324;2022-09-17T15:00:54;3.20;;;2.10;;
9294;SDS011;4686;44.496;11.324;2022-09-17T15:03:22;3.50;;;2.03;;
9294;SDS011;4686;44.496;11.324;2022-09-17T15:05:53;3.70;;;2.20;;
9294;SDS011;4686;44.496;11.324;2022-09-17T15:08:21;3.70;;;2.30;;
9294;SDS011;4686;44.496;11.324;2022-09-17T15:10:51;2.90;;;2.30;;
9294;SDS011;4686;44.496;11.324;2022-09-17T15:13:20;3.70;;;1.97;;
9294;SDS011;4686;44.496;11.324;2022-09-17T15:15:55;7.80;;;4.30;;
9294;SDS011;4686;44.496;11.324;2022-09-17T15:18:28;4.03;;;2.17;;
9294;SDS011;4686;44.496;11.324;2022-09-17T15:20:58;5.13;;;2.30;;
9294;SDS011;4686;44.496;11.324;2022-09-17T15:23:27;5.90;;;2.23;;
9294;SDS011;4686;44.496;11.324;2022-09-17T15:25:56;4.67;;;2.90;;
9294;SDS011;4686;44.496;11.324;2022-09-17T15:28:26;4.73;;;2.30;;
9294;SDS011;4686;44.496;11.324;2022-09-17T15:30:55;7.90;;;2.43;;
9294;SDS011;4686;44.496;11.324;2022-09-17T15:33:22;3.87;;;2.10;;
9294;SDS011;4686;44.496;11.324;2022-09-17T15:36:02;3.10;;;2.00;;
9294;SDS011;4686;44.496;11.324;2022-09-17T15:38:33;6.37;;;4.10;;
9294;SDS011;4686;44.496;11.324;2022-09-17T15:41:11;5.20;;;2.40;;
9294;SDS011;4686;44.496;11.324;2022-09-17T15:43:45;5.27;;;2.23;;
9294;SDS011;4686;44.496;11.324;2022-09-17T15:46:20;2.67;;;2.07;;
9294;SDS011;4686;44.496;11.324;2022-09-17T15:48:48;2.77;;;2.00;;
9294;SDS011;4686;44.496;11.324;2022-09-17T15:51:22;2.73;;;1.90;;
9294;SDS011;4686;44.496;11.324;2022-09-17T15:53:51;5.60;;;3.30;;
9294;SDS011;4686;44.496;11.324;2022-09-17T15:56:19;4.13;;;1.83;;
9294;SDS011;4686;44.496;11.324;2022-09-17T15:58:57;3.10;;;2.00;;
9294;SDS011;4686;44.496;11.324;2022-09-17T16:04:19;3.20;;;2.17;;
9294;SDS011;4686;44.496;11.324;2022-09-17T16:06:50;2.83;;;2.17;;
9294;SDS011;4686;44.496;11.324;2022-09-17T16:12:04;3.20;;;2.27;;